createdAt,value
2023-03-31T00:00:50.833Z,26.66
2023-03-31T00:01:50.882Z,26.64
2023-03-31T00:02:51.037Z,26.64
2023-03-31T00:03:51.150Z,26.68
2023-03-31T00:04:51.022Z,26.64
2023-03-31T00:05:51.063Z,26.64
2023-03-31T00:06:51.079Z,26.66
2023-03-31T00:07:51.179Z,26.66
2023-03-31T00:08:51.177Z,26.62
2023-03-31T00:09:51.244Z,26.66
2023-03-31T00:10:51.219Z,26.66
2023-03-31T00:11:51.313Z,26.63
2023-03-31T00:12:51.320Z,26.68
2023-03-31T00:13:51.388Z,26.63
2023-03-31T00:14:51.438Z,26.64
2023-03-31T00:15:52.851Z,26.64
2023-03-31T00:16:51.490Z,26.64
2023-03-31T00:17:51.480Z,26.63
2023-03-31T00:18:51.478Z,26.63
2023-03-31T00:19:51.412Z,26.63
2023-03-31T00:20:51.427Z,26.64
2023-03-31T00:21:51.436Z,26.63
2023-03-31T00:22:51.374Z,26.62
2023-03-31T00:23:51.373Z,26.63
2023-03-31T00:24:51.381Z,26.59
2023-03-31T00:25:51.393Z,26.62
2023-03-31T00:26:51.351Z,26.64
2023-03-31T00:27:51.368Z,26.62
2023-03-31T00:28:51.311Z,26.62
2023-03-31T00:29:51.377Z,26.63
2023-03-31T00:30:51.322Z,26.63
2023-03-31T00:31:51.359Z,26.64
2023-03-31T00:32:51.370Z,26.63
2023-03-31T00:33:51.353Z,26.62
2023-03-31T00:34:51.307Z,26.63
2023-03-31T00:35:51.378Z,26.62
2023-03-31T00:36:51.279Z,26.60
2023-03-31T00:37:51.268Z,26.63
2023-03-31T00:38:51.290Z,26.63
2023-03-31T00:39:51.290Z,26.62
2023-03-31T00:40:53.701Z,26.64
2023-03-31T00:41:51.229Z,26.60
2023-03-31T00:42:51.271Z,26.63
2023-03-31T00:43:51.258Z,26.62
2023-03-31T00:44:51.226Z,26.63
2023-03-31T00:45:51.315Z,26.62
2023-03-31T00:46:52.079Z,26.59
2023-03-31T00:47:51.230Z,26.60
2023-03-31T00:48:51.209Z,26.62
2023-03-31T00:49:51.175Z,26.60
2023-03-31T00:50:51.161Z,26.60
2023-03-31T00:51:51.225Z,26.59
2023-03-31T00:52:51.172Z,26.62
2023-03-31T00:53:51.176Z,26.60
2023-03-31T00:54:51.125Z,26.60
2023-03-31T00:55:51.114Z,26.59
2023-03-31T00:56:51.177Z,26.60
2023-03-31T00:57:51.161Z,26.59
2023-03-31T00:58:51.139Z,26.59
2023-03-31T00:59:51.168Z,26.60
2023-03-31T01:00:51.157Z,26.58
2023-03-31T01:01:51.134Z,26.60
2023-03-31T01:02:51.186Z,26.59
2023-03-31T01:03:51.110Z,26.62
2023-03-31T01:04:51.074Z,26.59
2023-03-31T01:05:51.069Z,26.59
2023-03-31T01:06:51.118Z,26.60
2023-03-31T01:07:51.066Z,26.59
2023-03-31T01:08:51.119Z,26.59
2023-03-31T01:09:51.033Z,26.60
2023-03-31T01:10:51.044Z,26.58
2023-03-31T01:11:51.051Z,26.59
2023-03-31T01:12:51.061Z,26.58
2023-03-31T01:13:51.008Z,26.59
2023-03-31T01:14:51.026Z,26.59
2023-03-31T01:15:51.031Z,26.59
2023-03-31T01:16:51.131Z,26.58
2023-03-31T01:17:51.330Z,26.59
2023-03-31T01:18:50.990Z,26.58
2023-03-31T01:19:51.003Z,26.58
2023-03-31T01:20:50.968Z,26.59
2023-03-31T01:21:50.995Z,26.56
2023-03-31T01:22:50.974Z,26.58
2023-03-31T01:23:50.989Z,26.59
2023-03-31T01:24:50.980Z,26.59
2023-03-31T01:25:51.130Z,26.58
2023-03-31T01:26:51.106Z,26.56
2023-03-31T01:27:51.116Z,26.56
2023-03-31T01:28:51.142Z,26.58
2023-03-31T01:29:51.160Z,26.58
2023-03-31T01:30:51.370Z,26.55
2023-03-31T01:31:51.380Z,26.55
2023-03-31T01:32:51.358Z,26.58
2023-03-31T01:33:51.267Z,26.55
2023-03-31T01:34:51.305Z,26.56
2023-03-31T01:35:51.359Z,26.56
2023-03-31T01:36:51.393Z,26.55
2023-03-31T01:37:51.437Z,26.55
2023-03-31T01:38:51.449Z,26.56
2023-03-31T01:39:51.492Z,26.56
2023-03-31T01:40:51.500Z,26.55
2023-03-31T01:41:51.517Z,26.58
2023-03-31T01:42:51.541Z,26.55
2023-03-31T01:43:51.629Z,26.56
2023-03-31T01:44:51.682Z,26.56
2023-03-31T01:45:51.661Z,26.56
2023-03-31T01:46:51.723Z,26.55
2023-03-31T01:47:51.798Z,26.53
2023-03-31T01:48:51.759Z,26.52
2023-03-31T01:49:51.894Z,26.56
2023-03-31T01:50:51.938Z,26.55
2023-03-31T01:51:51.838Z,26.55
2023-03-31T01:52:51.852Z,26.56
2023-03-31T01:53:51.928Z,26.53
2023-03-31T01:54:51.930Z,26.55
2023-03-31T01:55:52.137Z,26.53
2023-03-31T01:56:52.002Z,26.53
2023-03-31T01:57:51.983Z,26.53
2023-03-31T01:58:51.989Z,26.55
2023-03-31T01:59:52.066Z,26.55
2023-03-31T02:00:52.112Z,26.55
2023-03-31T02:01:52.105Z,26.53
2023-03-31T02:02:52.268Z,26.53
2023-03-31T02:03:52.172Z,26.53
2023-03-31T02:04:52.145Z,26.52
2023-03-31T02:05:52.205Z,26.53
2023-03-31T02:06:52.208Z,26.53
2023-03-31T02:07:52.218Z,26.56
2023-03-31T02:08:52.272Z,26.52
2023-03-31T02:09:52.339Z,26.52
2023-03-31T02:10:52.347Z,26.53
2023-03-31T02:11:52.281Z,26.55
2023-03-31T02:12:52.390Z,26.52
2023-03-31T02:13:52.455Z,26.52
2023-03-31T02:14:52.395Z,26.55
2023-03-31T02:15:52.449Z,26.52
2023-03-31T02:16:52.604Z,26.52
2023-03-31T02:17:52.550Z,26.56
2023-03-31T02:18:52.502Z,26.53
2023-03-31T02:19:52.537Z,26.51
2023-03-31T02:20:52.620Z,26.53
2023-03-31T02:21:52.558Z,26.55
2023-03-31T02:22:52.670Z,26.49
2023-03-31T02:23:52.619Z,26.52
2023-03-31T02:24:52.673Z,26.53
2023-03-31T02:25:52.674Z,26.53
2023-03-31T02:26:52.729Z,26.52
2023-03-31T02:27:52.758Z,26.52
2023-03-31T02:28:52.815Z,26.52
2023-03-31T02:29:52.885Z,26.55
2023-03-31T02:30:52.891Z,26.52
2023-03-31T02:31:53.094Z,26.52
2023-03-31T02:32:52.931Z,26.52
2023-03-31T02:33:52.910Z,26.53
2023-03-31T02:34:52.974Z,26.52
2023-03-31T02:35:53.004Z,26.51
2023-03-31T02:36:52.960Z,26.49
2023-03-31T02:37:52.984Z,26.51
2023-03-31T02:38:53.040Z,26.49
2023-03-31T02:39:53.046Z,26.52
2023-03-31T02:40:53.062Z,26.49
2023-03-31T02:41:53.097Z,26.51
2023-03-31T02:42:53.107Z,26.51
2023-03-31T02:43:53.109Z,26.51
2023-03-31T02:44:53.181Z,26.51
2023-03-31T02:45:53.306Z,26.51
2023-03-31T02:46:53.236Z,26.52
2023-03-31T02:47:53.279Z,26.52
2023-03-31T02:48:53.317Z,26.48
2023-03-31T02:49:53.354Z,26.51
2023-03-31T02:50:53.333Z,26.53
2023-03-31T02:51:53.383Z,26.51
2023-03-31T02:52:53.374Z,26.49
2023-03-31T02:53:53.431Z,26.49
2023-03-31T02:54:53.461Z,26.49
2023-03-31T02:55:53.424Z,26.53
2023-03-31T02:56:53.508Z,26.48
2023-03-31T02:57:53.477Z,26.49
2023-03-31T02:58:53.590Z,26.51
2023-03-31T02:59:53.525Z,26.49
2023-03-31T03:00:53.712Z,26.51
2023-03-31T03:01:53.607Z,26.49
2023-03-31T03:02:53.732Z,26.48
2023-03-31T03:03:53.620Z,26.49
2023-03-31T03:04:53.673Z,26.48
2023-03-31T03:05:53.676Z,26.49
2023-03-31T03:06:53.847Z,26.49
2023-03-31T03:07:53.774Z,26.48
2023-03-31T03:08:53.803Z,26.48
2023-03-31T03:09:53.821Z,26.49
2023-03-31T03:10:53.848Z,26.48
2023-03-31T03:11:53.884Z,26.49
2023-03-31T03:12:54.645Z,26.46
2023-03-31T03:13:53.941Z,26.49
2023-03-31T03:14:53.951Z,26.48
2023-03-31T03:15:53.963Z,26.48
2023-03-31T03:16:54.071Z,26.48
2023-03-31T03:17:54.145Z,26.48
2023-03-31T03:18:54.078Z,26.49
2023-03-31T03:19:54.155Z,26.48
2023-03-31T03:20:54.157Z,26.48
2023-03-31T03:21:54.157Z,26.46
2023-03-31T03:22:54.166Z,26.48
2023-03-31T03:23:54.233Z,26.48
2023-03-31T03:24:54.217Z,26.48
2023-03-31T03:25:54.281Z,26.48
2023-03-31T03:26:54.296Z,26.48
2023-03-31T03:27:54.295Z,26.48
2023-03-31T03:28:54.329Z,26.46
2023-03-31T03:29:54.331Z,26.46
2023-03-31T03:30:54.310Z,26.48
2023-03-31T03:31:54.473Z,26.48
2023-03-31T03:32:54.382Z,26.45
2023-03-31T03:33:54.348Z,26.46
2023-03-31T03:34:54.368Z,26.49
2023-03-31T03:35:54.423Z,26.45
2023-03-31T03:36:54.441Z,26.48
2023-03-31T03:37:54.477Z,26.46
2023-03-31T03:38:54.458Z,26.45
2023-03-31T03:39:54.491Z,26.46
2023-03-31T03:40:54.497Z,26.48
2023-03-31T03:41:54.496Z,26.43
2023-03-31T03:42:54.566Z,26.45
2023-03-31T03:43:54.600Z,26.46
2023-03-31T03:44:54.580Z,26.45
2023-03-31T03:45:54.725Z,26.46
2023-03-31T03:46:54.599Z,26.46
2023-03-31T03:47:54.681Z,26.45
2023-03-31T03:48:54.650Z,26.46
2023-03-31T03:49:54.747Z,26.43
2023-03-31T03:50:54.719Z,26.45
2023-03-31T03:51:54.774Z,26.46
2023-03-31T03:52:54.731Z,26.45
2023-03-31T03:53:54.811Z,26.45
2023-03-31T03:54:54.801Z,26.46
2023-03-31T03:55:54.813Z,26.45
2023-03-31T03:56:54.853Z,26.46
2023-03-31T03:57:54.918Z,26.45
2023-03-31T03:58:54.876Z,26.43
2023-03-31T03:59:54.940Z,26.43
2023-03-31T04:00:55.008Z,26.46
2023-03-31T04:01:54.978Z,26.46
2023-03-31T04:02:55.004Z,26.42
2023-03-31T04:03:54.984Z,26.43
2023-03-31T04:04:55.016Z,26.45
2023-03-31T04:05:54.965Z,26.42
2023-03-31T04:06:55.024Z,26.45
2023-03-31T04:07:54.980Z,26.42
2023-03-31T04:08:55.028Z,26.41
2023-03-31T04:09:55.037Z,26.43
2023-03-31T04:10:55.043Z,26.42
2023-03-31T04:11:55.049Z,26.42
2023-03-31T04:12:55.043Z,26.43
2023-03-31T04:13:55.127Z,26.39
2023-03-31T04:14:55.080Z,26.41
2023-03-31T04:15:55.174Z,26.41
2023-03-31T04:16:55.144Z,26.38
2023-03-31T04:17:55.108Z,26.39
2023-03-31T04:18:55.165Z,26.41
2023-03-31T04:19:55.175Z,26.38
2023-03-31T04:20:55.222Z,26.41
2023-03-31T04:21:55.212Z,26.39
2023-03-31T04:22:55.220Z,26.36
2023-03-31T04:23:55.229Z,26.36
2023-03-31T04:24:55.251Z,26.36
2023-03-31T04:25:55.321Z,26.39
2023-03-31T04:26:55.312Z,26.36
2023-03-31T04:27:55.362Z,26.38
2023-03-31T04:28:55.334Z,26.39
2023-03-31T04:29:55.340Z,26.38
2023-03-31T04:30:55.384Z,26.38
2023-03-31T04:31:55.469Z,26.38
2023-03-31T04:32:55.454Z,26.38
2023-03-31T04:33:55.395Z,26.35
2023-03-31T04:34:55.411Z,26.34
2023-03-31T04:35:55.538Z,26.36
2023-03-31T04:36:55.520Z,26.38
2023-03-31T04:37:55.550Z,26.38
2023-03-31T04:38:55.527Z,26.38
2023-03-31T04:39:55.537Z,26.39
2023-03-31T04:40:55.618Z,26.36
2023-03-31T04:41:55.520Z,26.38
2023-03-31T04:42:55.592Z,26.38
2023-03-31T04:43:55.564Z,26.36
2023-03-31T04:44:55.580Z,26.38
2023-03-31T04:45:55.710Z,26.38
2023-03-31T04:46:55.651Z,26.39
2023-03-31T04:47:55.664Z,26.41
2023-03-31T04:48:55.718Z,26.38
2023-03-31T04:49:55.703Z,26.36
2023-03-31T04:50:55.711Z,26.36
2023-03-31T04:51:55.730Z,26.39
2023-03-31T04:52:55.795Z,26.38
2023-03-31T04:53:55.778Z,26.39
2023-03-31T04:54:55.804Z,26.39
2023-03-31T04:55:55.864Z,26.38
2023-03-31T04:56:56.221Z,26.34
2023-03-31T04:57:55.963Z,26.39
2023-03-31T04:58:55.954Z,26.38
2023-03-31T04:59:55.975Z,26.39
2023-03-31T05:00:55.984Z,26.38
2023-03-31T05:01:56.018Z,26.39
2023-03-31T05:02:56.176Z,26.36
2023-03-31T05:03:56.055Z,26.35
2023-03-31T05:04:56.120Z,26.35
2023-03-31T05:05:56.098Z,26.36
2023-03-31T05:06:56.136Z,26.35
2023-03-31T05:07:56.162Z,26.34
2023-03-31T05:08:56.220Z,26.34
2023-03-31T05:09:56.260Z,26.34
2023-03-31T05:10:56.265Z,26.31
2023-03-31T05:11:56.358Z,26.31
2023-03-31T05:12:56.353Z,26.31
2023-03-31T05:13:56.343Z,26.29
2023-03-31T05:14:56.421Z,26.27
2023-03-31T05:15:56.399Z,26.29
2023-03-31T05:16:56.476Z,26.28
2023-03-31T05:17:56.462Z,26.25
2023-03-31T05:18:56.721Z,26.25
2023-03-31T05:19:56.534Z,26.25
2023-03-31T05:20:56.557Z,26.25
2023-03-31T05:21:56.662Z,26.24
2023-03-31T05:22:56.616Z,26.25
2023-03-31T05:23:56.678Z,26.22
2023-03-31T05:24:56.768Z,26.22
2023-03-31T05:25:56.729Z,26.25
2023-03-31T05:26:56.796Z,26.25
2023-03-31T05:27:56.801Z,26.27
2023-03-31T05:28:56.807Z,26.27
2023-03-31T05:29:57.751Z,26.28
2023-03-31T05:30:57.082Z,26.25
2023-03-31T05:31:56.886Z,26.25
2023-03-31T05:32:57.036Z,26.29
2023-03-31T05:33:56.948Z,26.31
2023-03-31T05:34:57.156Z,26.31
2023-03-31T05:35:57.118Z,26.31
2023-03-31T05:36:57.013Z,26.34
2023-03-31T05:37:57.121Z,26.34
2023-03-31T05:38:57.121Z,26.35
2023-03-31T05:39:57.195Z,26.35
2023-03-31T05:40:57.244Z,26.35
2023-03-31T05:41:57.190Z,26.34
2023-03-31T05:42:57.209Z,26.32
2023-03-31T05:43:57.268Z,26.31
2023-03-31T05:44:57.333Z,26.32
2023-03-31T05:45:57.332Z,26.32
2023-03-31T05:46:57.290Z,26.31
2023-03-31T05:47:57.430Z,26.27
2023-03-31T05:48:57.463Z,26.32
2023-03-31T05:49:57.463Z,26.32
2023-03-31T05:50:57.485Z,26.32
2023-03-31T05:51:57.409Z,26.34
2023-03-31T05:52:57.479Z,26.32
2023-03-31T05:53:57.450Z,26.34
2023-03-31T05:54:57.493Z,26.32
2023-03-31T05:55:57.537Z,26.34
2023-03-31T05:56:57.650Z,26.38
2023-03-31T05:57:57.625Z,26.34
2023-03-31T05:58:57.733Z,26.34
2023-03-31T05:59:57.685Z,26.34
2023-03-31T06:00:57.788Z,26.35
2023-03-31T06:01:57.840Z,26.36
2023-03-31T06:02:57.859Z,26.35
2023-03-31T06:03:57.914Z,26.35
2023-03-31T06:04:57.819Z,26.35
2023-03-31T06:05:57.880Z,26.35
2023-03-31T06:06:57.856Z,26.36
2023-03-31T06:07:57.900Z,26.36
2023-03-31T06:08:57.891Z,26.34
2023-03-31T06:09:57.950Z,26.35
2023-03-31T06:10:58.009Z,26.35
2023-03-31T06:11:58.264Z,26.35
2023-03-31T06:14:17.486Z,26.28
2023-03-31T06:15:17.471Z,26.31
2023-03-31T06:16:17.224Z,26.29
2023-03-31T06:17:17.645Z,26.31
2023-03-31T06:18:17.137Z,26.29
2023-03-31T06:19:17.162Z,26.29
2023-03-31T06:20:27.157Z,26.31
2023-03-31T06:21:18.196Z,26.29
2023-03-31T06:22:17.168Z,26.29
2023-03-31T06:23:17.501Z,26.29
2023-03-31T06:24:17.513Z,26.28
2023-03-31T06:25:17.154Z,26.27
2023-03-31T06:26:17.096Z,26.27
2023-03-31T06:27:17.130Z,26.28
2023-03-31T06:28:17.124Z,26.27
2023-03-31T06:29:17.132Z,26.29
2023-03-31T06:30:17.509Z,26.28
2023-03-31T06:31:17.177Z,26.31
2023-03-31T06:32:17.103Z,26.31
2023-03-31T06:33:17.253Z,26.31
2023-03-31T06:34:18.399Z,26.34
2023-03-31T06:35:17.472Z,26.32
2023-03-31T06:36:17.200Z,26.32
2023-03-31T06:37:18.014Z,26.34
2023-03-31T06:38:17.043Z,26.35
2023-03-31T06:39:17.108Z,26.35
2023-03-31T06:40:17.094Z,26.34
2023-03-31T06:41:17.169Z,26.34
2023-03-31T06:42:17.165Z,26.34
2023-03-31T06:43:17.278Z,26.35
2023-03-31T06:44:17.237Z,26.35
2023-03-31T06:45:17.301Z,26.38
2023-03-31T06:46:17.295Z,26.36
2023-03-31T06:47:20.057Z,26.42
2023-03-31T06:48:17.270Z,26.38
2023-03-31T06:49:17.875Z,26.39
2023-03-31T06:50:17.275Z,26.39
2023-03-31T06:51:17.992Z,26.38
2023-03-31T06:52:17.232Z,26.42
2023-03-31T06:53:17.238Z,26.39
2023-03-31T06:54:17.252Z,26.42
2023-03-31T06:55:17.213Z,26.42
2023-03-31T06:56:17.202Z,26.45
2023-03-31T06:57:17.235Z,26.43
2023-03-31T06:58:17.223Z,26.45
2023-03-31T06:59:17.329Z,26.43
2023-03-31T07:00:17.407Z,26.42
2023-03-31T07:01:17.209Z,26.43
2023-03-31T07:02:17.254Z,26.41
2023-03-31T07:03:17.319Z,26.42
2023-03-31T07:04:17.209Z,26.43
2023-03-31T07:05:19.061Z,26.43
2023-03-31T07:06:17.177Z,26.43
2023-03-31T07:07:17.140Z,26.43
2023-03-31T07:08:18.008Z,26.45
2023-03-31T07:09:17.098Z,26.43
2023-03-31T07:10:17.140Z,26.45
2023-03-31T07:11:17.099Z,26.48
2023-03-31T07:12:17.210Z,26.48
2023-03-31T07:13:17.086Z,26.49
2023-03-31T07:14:17.042Z,26.48
2023-03-31T07:15:17.321Z,26.48
2023-03-31T07:16:18.025Z,26.49
2023-03-31T07:17:17.075Z,26.48
2023-03-31T07:18:17.107Z,26.48
2023-03-31T07:19:17.074Z,26.48
2023-03-31T07:20:18.086Z,26.49
2023-03-31T07:21:17.166Z,26.49
2023-03-31T07:22:17.199Z,26.51
2023-03-31T07:23:17.212Z,26.51
2023-03-31T07:24:17.352Z,26.52
2023-03-31T07:25:17.247Z,26.53
2023-03-31T07:26:17.260Z,26.55
2023-03-31T07:27:17.320Z,26.55
2023-03-31T07:28:17.335Z,26.59
2023-03-31T07:29:18.039Z,26.55
2023-03-31T07:30:17.550Z,26.60
2023-03-31T07:31:17.400Z,26.60
2023-03-31T07:32:17.504Z,26.62
2023-03-31T07:33:17.557Z,26.63
2023-03-31T07:34:17.526Z,26.60
2023-03-31T07:35:17.977Z,26.60
2023-03-31T07:36:17.825Z,26.63
2023-03-31T07:37:17.669Z,26.63
2023-03-31T07:38:17.602Z,26.63
2023-03-31T07:39:17.618Z,26.64
2023-03-31T07:40:17.604Z,26.66
2023-03-31T07:41:17.660Z,26.66
2023-03-31T07:42:17.673Z,26.68
2023-03-31T07:43:17.753Z,26.69
2023-03-31T07:44:17.737Z,26.68
2023-03-31T07:45:17.737Z,26.69
2023-03-31T07:46:17.824Z,26.68
2023-03-31T07:47:17.795Z,26.72
2023-03-31T07:48:17.842Z,26.66
2023-03-31T07:49:17.861Z,26.70
2023-03-31T07:50:18.007Z,26.72
2023-03-31T07:51:17.837Z,26.72
2023-03-31T07:52:17.899Z,26.73
2023-03-31T07:53:17.883Z,26.75
2023-03-31T07:54:17.911Z,26.73
2023-03-31T07:55:17.952Z,26.76
2023-03-31T07:56:17.925Z,26.78
2023-03-31T07:57:18.010Z,26.78
2023-03-31T07:58:17.969Z,26.79
2023-03-31T07:59:17.995Z,26.79
2023-03-31T08:00:18.016Z,26.79
2023-03-31T08:01:18.089Z,26.78
2023-03-31T08:02:18.148Z,26.79
2023-03-31T08:03:18.086Z,26.82
2023-03-31T08:04:18.174Z,26.80
2023-03-31T08:05:18.224Z,26.83
2023-03-31T08:06:18.165Z,26.85
2023-03-31T08:07:18.329Z,26.83
2023-03-31T08:08:18.344Z,26.83
2023-03-31T08:09:18.271Z,26.82
2023-03-31T08:10:18.222Z,26.83
2023-03-31T08:11:18.244Z,26.83
2023-03-31T08:12:18.317Z,26.86
2023-03-31T08:13:18.359Z,26.85
2023-03-31T08:14:27.264Z,26.85
2023-03-31T08:15:19.494Z,26.85
2023-03-31T08:16:18.485Z,26.85
2023-03-31T08:17:18.492Z,26.86
2023-03-31T08:18:18.393Z,26.85
2023-03-31T08:19:18.393Z,26.85
2023-03-31T08:20:18.376Z,26.85
2023-03-31T08:21:18.372Z,26.86
2023-03-31T08:22:18.314Z,26.86
2023-03-31T08:23:18.388Z,26.87
2023-03-31T08:24:18.420Z,26.90
2023-03-31T08:25:18.518Z,26.87
2023-03-31T08:26:18.645Z,26.85
2023-03-31T08:27:18.563Z,26.86
2023-03-31T08:28:19.194Z,26.85
2023-03-31T08:29:18.569Z,26.85
2023-03-31T08:30:18.565Z,26.86
2023-03-31T08:31:18.626Z,26.86
2023-03-31T08:32:18.665Z,26.86
2023-03-31T08:33:18.589Z,26.87
2023-03-31T08:34:18.655Z,26.87
2023-03-31T08:35:18.679Z,26.87
2023-03-31T08:36:18.743Z,26.86
2023-03-31T08:37:18.741Z,26.85
2023-03-31T08:38:18.831Z,26.83
2023-03-31T08:39:18.776Z,26.86
2023-03-31T08:40:18.836Z,26.90
2023-03-31T08:41:18.902Z,26.85
2023-03-31T08:42:19.020Z,26.83
2023-03-31T08:43:18.862Z,26.83
2023-03-31T08:44:19.588Z,26.80
2023-03-31T08:45:18.935Z,26.83
2023-03-31T08:46:18.966Z,26.82
2023-03-31T08:47:19.003Z,26.83
2023-03-31T08:48:18.970Z,26.85
2023-03-31T08:49:18.971Z,26.86
2023-03-31T08:50:19.020Z,26.89
2023-03-31T08:51:19.059Z,26.89
2023-03-31T08:52:19.144Z,26.89
2023-03-31T08:53:19.105Z,26.89
2023-03-31T08:54:19.216Z,26.91
2023-03-31T08:55:19.156Z,26.90
2023-03-31T08:56:22.081Z,26.93
2023-03-31T08:57:19.238Z,26.91
2023-03-31T08:58:19.223Z,26.94
2023-03-31T08:59:19.181Z,26.94
2023-03-31T09:00:19.236Z,26.96
2023-03-31T09:01:19.238Z,26.94
2023-03-31T09:02:19.285Z,26.94
2023-03-31T09:03:19.218Z,26.97
2023-03-31T09:04:19.649Z,26.97
2023-03-31T09:05:19.138Z,26.99
2023-03-31T09:06:19.146Z,26.96
2023-03-31T09:07:19.200Z,26.97
2023-03-31T09:08:19.110Z,27.00
2023-03-31T09:09:19.118Z,26.97
2023-03-31T09:10:19.064Z,26.99
2023-03-31T09:11:19.112Z,27.00
2023-03-31T09:12:19.163Z,26.99
2023-03-31T09:13:19.063Z,27.01
2023-03-31T09:14:19.094Z,26.99
2023-03-31T09:15:19.068Z,27.03
2023-03-31T09:16:19.051Z,27.03
2023-03-31T09:17:19.021Z,27.03
2023-03-31T09:18:19.016Z,27.06
2023-03-31T09:19:19.580Z,27.04
2023-03-31T09:20:19.078Z,27.04
2023-03-31T09:21:19.036Z,27.04
2023-03-31T09:22:19.029Z,27.03
2023-03-31T09:23:18.997Z,27.04
2023-03-31T09:24:19.036Z,27.06
2023-03-31T09:25:19.057Z,27.04
2023-03-31T09:26:19.039Z,27.04
2023-03-31T09:27:18.972Z,27.04
2023-03-31T09:28:18.984Z,27.07
2023-03-31T09:29:19.045Z,27.04
2023-03-31T09:30:18.986Z,27.00
2023-03-31T09:31:19.011Z,27.01
2023-03-31T09:32:18.960Z,26.99
2023-03-31T09:33:18.966Z,27.00
2023-03-31T09:34:19.109Z,27.00
2023-03-31T09:35:18.910Z,27.00
2023-03-31T09:36:18.975Z,27.00
2023-03-31T09:37:18.936Z,27.03
2023-03-31T09:38:18.884Z,27.01
2023-03-31T09:39:18.997Z,27.01
2023-03-31T09:40:19.168Z,27.01
2023-03-31T09:41:19.122Z,27.01
2023-03-31T09:42:18.885Z,27.04
2023-03-31T09:43:18.869Z,27.01
2023-03-31T09:44:18.992Z,27.01
2023-03-31T09:45:18.984Z,27.04
2023-03-31T09:46:19.755Z,27.03
2023-03-31T09:47:19.186Z,27.06
2023-03-31T09:48:19.121Z,27.06
2023-03-31T09:49:19.122Z,27.09
2023-03-31T09:50:19.150Z,27.07
2023-03-31T09:51:20.568Z,27.06
2023-03-31T09:52:19.198Z,27.07
2023-03-31T09:53:19.251Z,27.07
2023-03-31T09:54:19.629Z,27.06
2023-03-31T09:55:32.099Z,27.06
2023-03-31T09:56:21.119Z,27.10
2023-03-31T09:57:19.356Z,27.06
2023-03-31T09:58:19.135Z,27.06
2023-03-31T09:59:19.076Z,27.04
2023-03-31T10:00:19.601Z,27.06
2023-03-31T10:01:19.185Z,27.06
2023-03-31T10:02:19.156Z,27.03
2023-03-31T10:03:19.176Z,27.06
2023-03-31T10:04:19.211Z,27.07
2023-03-31T10:05:19.087Z,27.07
2023-03-31T10:06:19.023Z,27.04
2023-03-31T10:07:19.109Z,27.04
2023-03-31T10:08:30.026Z,27.06
2023-03-31T10:09:20.189Z,27.04
2023-03-31T10:10:19.178Z,27.04
2023-03-31T10:11:19.207Z,27.03
2023-03-31T10:12:19.077Z,27.04
2023-03-31T10:13:19.187Z,27.01
2023-03-31T10:14:19.026Z,27.03
2023-03-31T10:15:19.119Z,27.04
2023-03-31T10:16:19.801Z,27.04
2023-03-31T10:17:19.148Z,27.01
2023-03-31T10:18:19.033Z,27.03
2023-03-31T10:19:19.017Z,27.03
2023-03-31T10:20:19.106Z,27.03
2023-03-31T10:21:19.250Z,27.03
2023-03-31T10:22:19.265Z,27.01
2023-03-31T10:23:19.978Z,27.03
2023-03-31T10:24:18.948Z,27.03
2023-03-31T10:25:19.000Z,27.00
2023-03-31T10:26:18.975Z,27.01
2023-03-31T10:27:19.893Z,27.00
2023-03-31T10:28:18.970Z,27.00
2023-03-31T10:29:19.088Z,27.00
2023-03-31T10:30:19.077Z,26.94
2023-03-31T10:31:19.141Z,26.96
2023-03-31T10:32:19.180Z,26.93
2023-03-31T10:33:22.760Z,26.93
2023-03-31T10:34:18.917Z,26.96
2023-03-31T10:35:19.112Z,26.94
2023-03-31T10:36:19.531Z,26.96
2023-03-31T10:37:18.882Z,26.96
2023-03-31T10:38:19.035Z,26.94
2023-03-31T10:39:18.913Z,26.96
2023-03-31T10:40:18.864Z,26.99
2023-03-31T10:41:18.907Z,26.94
2023-03-31T10:42:18.812Z,26.99
2023-03-31T10:43:18.839Z,26.97
2023-03-31T10:44:18.843Z,26.97
2023-03-31T10:45:33.591Z,26.97
2023-03-31T10:46:19.818Z,26.94
2023-03-31T10:47:18.766Z,26.96
2023-03-31T10:48:18.775Z,26.97
2023-03-31T10:49:18.773Z,26.99
2023-03-31T10:50:18.766Z,27.00
2023-03-31T10:51:18.730Z,26.99
2023-03-31T10:52:18.762Z,26.97
2023-03-31T10:53:18.809Z,26.99
2023-03-31T10:54:18.754Z,27.01
2023-03-31T10:55:18.725Z,26.96
2023-03-31T10:56:18.723Z,26.99
2023-03-31T10:57:18.819Z,26.99
2023-03-31T10:58:18.964Z,26.99
2023-03-31T10:59:18.856Z,26.97
2023-03-31T11:00:18.873Z,26.99
2023-03-31T11:01:18.963Z,26.97
2023-03-31T11:02:19.225Z,26.97
2023-03-31T11:03:19.080Z,26.97
2023-03-31T11:04:19.022Z,26.97
2023-03-31T11:05:19.098Z,26.97
2023-03-31T11:06:19.101Z,26.96
2023-03-31T11:07:20.073Z,26.96
2023-03-31T11:08:20.175Z,26.99
2023-03-31T11:09:19.334Z,26.96
2023-03-31T11:10:19.371Z,26.97
2023-03-31T11:11:19.333Z,26.99
2023-03-31T11:12:19.335Z,26.96
2023-03-31T11:13:19.423Z,26.97
2023-03-31T11:14:19.390Z,26.96
2023-03-31T11:15:19.462Z,26.97
2023-03-31T11:16:19.670Z,26.99
2023-03-31T11:17:19.708Z,26.97
2023-03-31T11:18:19.588Z,26.97
2023-03-31T11:19:19.616Z,26.94
2023-03-31T11:20:19.747Z,26.94
2023-03-31T11:21:19.746Z,26.94
2023-03-31T11:22:19.752Z,26.94
2023-03-31T11:23:19.822Z,26.97
2023-03-31T11:24:19.958Z,26.96
2023-03-31T11:25:19.948Z,26.93
2023-03-31T11:26:20.029Z,26.93
2023-03-31T11:27:20.005Z,26.96
2023-03-31T11:28:20.095Z,26.93
2023-03-31T11:29:20.039Z,26.96
2023-03-31T11:30:20.102Z,26.96
2023-03-31T11:31:20.204Z,26.96
2023-03-31T11:32:20.226Z,26.96
2023-03-31T11:33:20.243Z,26.96
2023-03-31T11:34:20.359Z,26.97
2023-03-31T11:35:20.321Z,26.97
2023-03-31T11:36:20.377Z,26.99
2023-03-31T11:37:20.344Z,26.99
2023-03-31T11:38:21.670Z,26.97
2023-03-31T11:39:20.388Z,26.94
2023-03-31T11:40:20.434Z,26.96
2023-03-31T11:41:20.356Z,26.96
2023-03-31T11:42:20.343Z,26.96
2023-03-31T11:43:20.410Z,26.96
2023-03-31T11:44:20.342Z,26.99
2023-03-31T11:45:20.330Z,26.96
2023-03-31T11:46:20.350Z,27.00
2023-03-31T11:47:20.307Z,26.96
2023-03-31T11:48:20.315Z,26.97
2023-03-31T11:49:20.292Z,26.96
2023-03-31T11:50:20.281Z,26.97
2023-03-31T11:51:20.376Z,26.99
2023-03-31T11:52:20.332Z,26.96
2023-03-31T11:53:20.292Z,26.97
2023-03-31T11:54:20.282Z,26.96
2023-03-31T11:55:20.292Z,26.99
2023-03-31T11:56:20.258Z,26.96
2023-03-31T11:57:20.424Z,26.96
2023-03-31T11:58:21.138Z,26.96
2023-03-31T11:59:20.238Z,26.96
2023-03-31T12:00:20.232Z,26.94
2023-03-31T12:01:20.344Z,26.97
2023-03-31T12:02:20.170Z,26.99
2023-03-31T12:03:20.301Z,26.96
2023-03-31T12:04:20.204Z,26.94
2023-03-31T12:05:20.145Z,26.97
2023-03-31T12:06:20.202Z,26.93
2023-03-31T12:07:20.176Z,26.96
2023-03-31T12:08:20.278Z,26.97
2023-03-31T12:09:20.167Z,26.96
2023-03-31T12:10:20.159Z,26.94
2023-03-31T12:11:20.134Z,26.96
2023-03-31T12:12:21.128Z,26.96
2023-03-31T12:13:20.143Z,26.94
2023-03-31T12:14:20.116Z,26.97
2023-03-31T12:15:20.084Z,26.99
2023-03-31T12:16:20.097Z,26.99
2023-03-31T12:17:20.058Z,26.96
2023-03-31T12:18:20.061Z,26.97
2023-03-31T12:19:20.050Z,26.97
2023-03-31T12:20:20.078Z,26.99
2023-03-31T12:21:20.038Z,26.99
2023-03-31T12:22:20.042Z,26.96
2023-03-31T12:23:19.999Z,26.96
2023-03-31T12:24:20.018Z,26.97
2023-03-31T12:25:20.051Z,26.97
2023-03-31T12:26:20.015Z,26.99
2023-03-31T12:27:20.002Z,26.97
2023-03-31T12:28:19.991Z,26.97
2023-03-31T12:29:19.969Z,26.97
2023-03-31T12:30:19.938Z,26.96
2023-03-31T12:31:20.017Z,26.97
2023-03-31T12:32:19.975Z,26.96
2023-03-31T12:33:19.956Z,26.96
2023-03-31T12:34:19.981Z,26.96
2023-03-31T12:35:20.010Z,26.94
2023-03-31T12:36:20.125Z,26.96
2023-03-31T12:37:20.089Z,26.93
2023-03-31T12:38:20.251Z,26.99
2023-03-31T12:39:20.097Z,26.94
2023-03-31T12:40:20.160Z,26.97
2023-03-31T12:41:20.221Z,26.94
2023-03-31T12:42:20.202Z,26.96
2023-03-31T12:43:20.248Z,26.96
2023-03-31T12:44:20.437Z,26.96
2023-03-31T12:45:20.309Z,26.96
2023-03-31T12:46:20.370Z,26.97
2023-03-31T12:47:20.393Z,26.99
2023-03-31T12:48:20.424Z,26.97
2023-03-31T12:49:20.497Z,26.96
2023-03-31T12:50:20.498Z,26.96
2023-03-31T12:51:20.491Z,26.94
2023-03-31T12:52:20.551Z,26.96
2023-03-31T12:53:20.580Z,26.96
2023-03-31T12:54:20.618Z,26.96